sensor_id;sensor_type;location;lat;lon;timestamp;pressure;altitude;pressure_sealevel;temperature;humidity
21276;BME280;36472;52.170;20.884;2023-08-06T00:00:57;99355.50;;;21.05;100.00
21276;BME280;36472;52.170;20.884;2023-08-06T00:03:46;99359.97;;;20.98;100.00
21276;BME280;36472;52.170;20.884;2023-08-06T00:06:15;99377.00;;;20.97;100.00
21276;BME280;36472;52.170;20.884;2023-08-06T00:08:44;99383.34;;;20.96;100.00
21276;BME280;36472;52.170;20.884;2023-08-06T00:11:13;99379.59;;;20.90;100.00
21276;BME280;36472;52.170;20.884;2023-08-06T00:13:42;99376.13;;;20.89;100.00
21276;BME280;36472;52.170;20.884;2023-08-06T00:16:13;99363.16;;;20.86;100.00
21276;BME280;36472;52.170;20.884;2023-08-06T00:18:42;99369.94;;;20.89;100.00
21276;BME280;36472;52.170;20.884;2023-08-06T00:21:11;99351.78;;;20.78;100.00
21276;BME280;36472;52.170;20.884;2023-08-06T00:23:41;99342.69;;;20.72;100.00
21276;BME280;36472;52.170;20.884;2023-08-06T00:26:10;99344.00;;;20.61;100.00
21276;BME280;36472;52.170;20.884;2023-08-06T00:28:39;99345.69;;;20.62;100.00
21276;BME280;36472;52.170;20.884;2023-08-06T00:31:08;99335.72;;;20.56;100.00
21276;BME280;36472;52.170;20.884;2023-08-06T00:33:39;99321.56;;;20.55;100.00
21276;BME280;36472;52.170;20.884;2023-08-06T00:36:07;99313.50;;;20.49;100.00
21276;BME280;36472;52.170;20.884;2023-08-06T00:38:36;99306.13;;;20.51;100.00
21276;BME280;36472;52.170;20.884;2023-08-06T00:41:05;99297.63;;;20.41;100.00
21276;BME280;36472;52.170;20.884;2023-08-06T00:43:34;99310.31;;;20.39;100.00
21276;BME280;36472;52.170;20.884;2023-08-06T00:46:04;99298.06;;;20.44;100.00
21276;BME280;36472;52.170;20.884;2023-08-06T00:48:33;99284.47;;;20.39;100.00
21276;BME280;36472;52.170;20.884;2023-08-06T00:51:03;99272.97;;;20.39;100.00
21276;BME280;36472;52.170;20.884;2023-08-06T00:53:33;99262.50;;;20.37;100.00
21276;BME280;36472;52.170;20.884;2023-08-06T00:56:02;99243.38;;;20.33;100.00
21276;BME280;36472;52.170;20.884;2023-08-06T00:58:32;99241.34;;;20.35;100.00
21276;BME280;36472;52.170;20.884;2023-08-06T01:01:01;99236.00;;;20.35;100.00
21276;BME280;36472;52.170;20.884;2023-08-06T01:03:30;99223.44;;;20.29;100.00
21276;BME280;36472;52.170;20.884;2023-08-06T01:06:02;99221.41;;;20.31;100.00
21276;BME280;36472;52.170;20.884;2023-08-06T01:08:44;99211.16;;;20.35;100.00
21276;BME280;36472;52.170;20.884;2023-08-06T01:11:27;99208.50;;;20.35;100.00
21276;BME280;36472;52.170;20.884;2023-08-06T01:14:08;99196.34;;;20.32;100.00
21276;BME280;36472;52.170;20.884;2023-08-06T01:16:42;99184.69;;;20.33;100.00
21276;BME280;36472;52.170;20.884;2023-08-06T01:19:16;99169.06;;;20.30;100.00
21276;BME280;36472;52.170;20.884;2023-08-06T01:21:47;99140.59;;;20.37;100.00
21276;BME280;36472;52.170;20.884;2023-08-06T01:24:17;99131.94;;;20.35;100.00
21276;BME280;36472;52.170;20.884;2023-08-06T01:26:55;99118.38;;;20.30;100.00
21276;BME280;36472;52.170;20.884;2023-08-06T01:29:35;99118.81;;;20.34;100.00
21276;BME280;36472;52.170;20.884;2023-08-06T01:32:08;99112.22;;;20.30;100.00
21276;BME280;36472;52.170;20.884;2023-08-06T01:34:41;99111.59;;;20.28;100.00
21276;BME280;36472;52.170;20.884;2023-08-06T01:37:14;99099.69;;;20.30;100.00
21276;BME280;36472;52.170;20.884;2023-08-06T01:39:43;99090.25;;;20.28;100.00
21276;BME280;36472;52.170;20.884;2023-08-06T01:42:12;99087.41;;;20.29;100.00
21276;BME280;36472;52.170;20.884;2023-08-06T01:44:41;99077.78;;;20.35;100.00
21276;BME280;36472;52.170;20.884;2023-08-06T01:47:10;99086.16;;;20.32;100.00
21276;BME280;36472;52.170;20.884;2023-08-06T01:49:39;99079.41;;;20.36;100.00
21276;BME280;36472;52.170;20.884;2023-08-06T01:52:08;99086.03;;;20.40;100.00
21276;BME280;36472;52.170;20.884;2023-08-06T01:54:38;99078.03;;;20.40;100.00
21276;BME280;36472;52.170;20.884;2023-08-06T01:57:07;99085.63;;;20.43;100.00
21276;BME280;36472;52.170;20.884;2023-08-06T01:59:36;99076.78;;;20.43;100.00
21276;BME280;36472;52.170;20.884;2023-08-06T02:02:05;99064.72;;;20.47;100.00
21276;BME280;36472;52.170;20.884;2023-08-06T02:04:35;99072.31;;;20.43;100.00
21276;BME280;36472;52.170;20.884;2023-08-06T02:07:04;99074.34;;;20.48;100.00
21276;BME280;36472;52.170;20.884;2023-08-06T02:09:33;99070.09;;;20.53;100.00
21276;BME280;36472;52.170;20.884;2023-08-06T02:12:06;99057.97;;;20.51;100.00
21276;BME280;36472;52.170;20.884;2023-08-06T02:14:35;99052.44;;;20.52;100.00
21276;BME280;36472;52.170;20.884;2023-08-06T02:17:04;99044.84;;;20.56;100.00
21276;BME280;36472;52.170;20.884;2023-08-06T02:19:33;99044.84;;;20.56;100.00
21276;BME280;36472;52.170;20.884;2023-08-06T02:22:02;99041.97;;;20.58;100.00
21276;BME280;36472;52.170;20.884;2023-08-06T02:24:31;99036.03;;;20.55;100.00
21276;BME280;36472;52.170;20.884;2023-08-06T02:27:00;99042.59;;;20.60;100.00
21276;BME280;36472;52.170;20.884;2023-08-06T02:29:31;99051.66;;;20.59;100.00
21276;BME280;36472;52.170;20.884;2023-08-06T02:31:59;99053.72;;;20.63;100.00
21276;BME280;36472;52.170;20.884;2023-08-06T02:34:30;99045.53;;;20.65;100.00
21276;BME280;36472;52.170;20.884;2023-08-06T02:36:58;99042.59;;;20.60;100.00
21276;BME280;36472;52.170;20.884;2023-08-06T02:39:28;99037.94;;;20.68;100.00
21276;BME280;36472;52.170;20.884;2023-08-06T02:41:58;99048.03;;;20.73;100.00
21276;BME280;36472;52.170;20.884;2023-08-06T02:44:28;99043.75;;;20.72;100.00
21276;BME280;36472;52.170;20.884;2023-08-06T02:46:58;99032.41;;;20.70;100.00
21276;BME280;36472;52.170;20.884;2023-08-06T02:49:27;99030.38;;;20.79;100.00
21276;BME280;36472;52.170;20.884;2023-08-06T02:51:56;99018.47;;;20.74;100.00
21276;BME280;36472;52.170;20.884;2023-08-06T02:54:25;99018.69;;;20.80;100.00
21276;BME280;36472;52.170;20.884;2023-08-06T02:56:53;99011.31;;;20.82;100.00
21276;BME280;36472;52.170;20.884;2023-08-06T02:59:27;99016.06;;;20.86;100.00
21276;BME280;36472;52.170;20.884;2023-08-06T03:02:16;99000.03;;;20.86;100.00
21276;BME280;36472;52.170;20.884;2023-08-06T03:05:04;98995.13;;;20.90;100.00
21276;BME280;36472;52.170;20.884;2023-08-06T03:07:39;98991.44;;;20.91;100.00
21276;BME280;36472;52.170;20.884;2023-08-06T03:10:18;98991.44;;;20.91;100.00
21276;BME280;36472;52.170;20.884;2023-08-06T03:12:50;98972.75;;;20.91;100.00
21276;BME280;36472;52.170;20.884;2023-08-06T03:15:20;98978.91;;;20.91;100.00
21276;BME280;36472;52.170;20.884;2023-08-06T03:17:51;98970.06;;;20.91;100.00
21276;BME280;36472;52.170;20.884;2023-08-06T03:20:21;98965.13;;;20.88;100.00
21276;BME280;36472;52.170;20.884;2023-08-06T03:22:50;98955.66;;;20.85;100.00
21276;BME280;36472;52.170;20.884;2023-08-06T03:25:20;98953.22;;;20.90;100.00
21276;BME280;36472;52.170;20.884;2023-08-06T03:27:50;98945.63;;;20.87;100.00
21276;BME280;36472;52.170;20.884;2023-08-06T03:30:20;98937.63;;;20.87;100.00
21276;BME280;36472;52.170;20.884;2023-08-06T03:32:53;98936.19;;;20.91;100.00
21276;BME280;36472;52.170;20.884;2023-08-06T03:35:23;98923.44;;;20.87;100.00
21276;BME280;36472;52.170;20.884;2023-08-06T03:37:52;98922.63;;;20.86;100.00
21276;BME280;36472;52.170;20.884;2023-08-06T03:40:21;98911.53;;;20.89;100.00
21276;BME280;36472;52.170;20.884;2023-08-06T03:42:51;98898.78;;;20.91;100.00
21276;BME280;36472;52.170;20.884;2023-08-06T03:45:20;98895.31;;;20.91;100.00
21276;BME280;36472;52.170;20.884;2023-08-06T03:47:49;98888.72;;;20.93;100.00
21276;BME280;36472;52.170;20.884;2023-08-06T03:50:20;98885.44;;;20.91;100.00
21276;BME280;36472;52.170;20.884;2023-08-06T03:52:49;98883.59;;;20.99;100.00
21276;BME280;36472;52.170;20.884;2023-08-06T03:55:18;98877.44;;;20.98;100.00
21276;BME280;36472;52.170;20.884;2023-08-06T03:57:47;98878.84;;;20.94;100.00
21276;BME280;36472;52.170;20.884;2023-08-06T04:00:16;98870.84;;;21.01;100.00
21276;BME280;36472;52.170;20.884;2023-08-06T04:02:51;98862.03;;;21.07;100.00
21276;BME280;36472;52.170;20.884;2023-08-06T04:05:23;98852.16;;;21.07;100.00
21276;BME280;36472;52.170;20.884;2023-08-06T04:07:51;98842.72;;;21.11;100.00
21276;BME280;36472;52.170;20.884;2023-08-06T04:10:21;98852.81;;;21.09;100.00
21276;BME280;36472;52.170;20.884;2023-08-06T04:12:50;98846.22;;;21.12;100.00
21276;BME280;36472;52.170;20.884;2023-08-06T04:15:19;98842.31;;;21.15;100.00
21276;BME280;36472;52.170;20.884;2023-08-06T04:17:47;98834.53;;;21.13;100.00
21276;BME280;36472;52.170;20.884;2023-08-06T04:20:17;98824.84;;;21.19;100.00
21276;BME280;36472;52.170;20.884;2023-08-06T04:22:47;98820.94;;;21.21;100.00
21276;BME280;36472;52.170;20.884;2023-08-06T04:25:16;98821.16;;;21.20;100.00
21276;BME280;36472;52.170;20.884;2023-08-06T04:27:48;98818.69;;;21.25;100.00
21276;BME280;36472;52.170;20.884;2023-08-06T04:30:17;98817.22;;;21.22;100.00
21276;BME280;36472;52.170;20.884;2023-08-06T04:32:46;98820.09;;;21.27;100.00
21276;BME280;36472;52.170;20.884;2023-08-06T04:35:17;98812.91;;;21.28;100.00
21276;BME280;36472;52.170;20.884;2023-08-06T04:37:48;98810.22;;;21.35;100.00
21276;BME280;36472;52.170;20.884;2023-08-06T04:40:17;98802.22;;;21.35;100.00
21276;BME280;36472;52.170;20.884;2023-08-06T04:42:46;98802.81;;;21.37;100.00
21276;BME280;36472;52.170;20.884;2023-08-06T04:45:15;98797.06;;;21.40;100.00
21276;BME280;36472;52.170;20.884;2023-08-06T04:47:44;98795.84;;;21.49;100.00
21276;BME280;36472;52.170;20.884;2023-08-06T04:50:13;98800.34;;;21.55;100.00
21276;BME280;36472;52.170;20.884;2023-08-06T04:52:42;98785.94;;;21.63;100.00
21276;BME280;36472;52.170;20.884;2023-08-06T04:55:12;98789.00;;;21.66;100.00
21276;BME280;36472;52.170;20.884;2023-08-06T04:57:41;98787.13;;;21.74;100.00
21276;BME280;36472;52.170;20.884;2023-08-06T05:00:11;98786.28;;;21.80;100.00
21276;BME280;36472;52.170;20.884;2023-08-06T05:02:40;98787.91;;;21.81;100.00
21276;BME280;36472;52.170;20.884;2023-08-06T05:05:09;98789.09;;;21.92;100.00
21276;BME280;36472;52.170;20.884;2023-08-06T05:07:38;98789.25;;;22.03;100.00
21276;BME280;36472;52.170;20.884;2023-08-06T05:10:07;98778.94;;;22.07;100.00
21276;BME280;36472;52.170;20.884;2023-08-06T05:12:38;98770.88;;;22.14;100.00
21276;BME280;36472;52.170;20.884;2023-08-06T05:15:08;98770.88;;;22.14;100.00
21276;BME280;36472;52.170;20.884;2023-08-06T05:17:37;98777.59;;;22.23;100.00
21276;BME280;36472;52.170;20.884;2023-08-06T05:20:07;98768.09;;;22.27;100.00
21276;BME280;36472;52.170;20.884;2023-08-06T05:22:36;98759.91;;;22.29;100.00
21276;BME280;36472;52.170;20.884;2023-08-06T05:25:06;98764.19;;;22.36;100.00
21276;BME280;36472;52.170;20.884;2023-08-06T05:27:35;98756.50;;;22.47;100.00
21276;BME280;36472;52.170;20.884;2023-08-06T05:30:08;98746.13;;;22.57;100.00
21276;BME280;36472;52.170;20.884;2023-08-06T05:32:37;98746.28;;;22.62;100.00
21276;BME280;36472;52.170;20.884;2023-08-06T05:35:06;98749.28;;;22.72;99.46
21276;BME280;36472;52.170;20.884;2023-08-06T05:37:35;98738.31;;;22.81;98.66
21276;BME280;36472;52.170;20.884;2023-08-06T05:40:06;98736.53;;;22.93;98.39
21276;BME280;36472;52.170;20.884;2023-08-06T05:42:35;98729.25;;;23.00;96.87
21276;BME280;36472;52.170;20.884;2023-08-06T05:45:07;98730.31;;;23.18;96.19
21276;BME280;36472;52.170;20.884;2023-08-06T05:47:36;98729.38;;;23.30;94.20
21276;BME280;36472;52.170;20.884;2023-08-06T05:50:07;98727.78;;;23.60;92.56
21276;BME280;36472;52.170;20.884;2023-08-06T05:52:36;98726.75;;;23.91;90.87
21276;BME280;36472;52.170;20.884;2023-08-06T05:55:06;98709.50;;;23.87;89.20
21276;BME280;36472;52.170;20.884;2023-08-06T05:57:35;98712.59;;;24.02;88.49
21276;BME280;36472;52.170;20.884;2023-08-06T06:00:08;98719.72;;;24.20;87.99
21276;BME280;36472;52.170;20.884;2023-08-06T06:02:40;98722.81;;;24.24;86.87
21276;BME280;36472;52.170;20.884;2023-08-06T06:05:09;98714.50;;;24.14;86.38
21276;BME280;36472;52.170;20.884;2023-08-06T06:07:38;98713.06;;;24.11;85.27
21276;BME280;36472;52.170;20.884;2023-08-06T06:10:08;98708.88;;;24.03;85.38
21276;BME280;36472;52.170;20.884;2023-08-06T06:12:39;98714.75;;;24.24;84.90
21276;BME280;36472;52.170;20.884;2023-08-06T06:15:10;98715.13;;;24.51;83.09
21276;BME280;36472;52.170;20.884;2023-08-06T06:17:39;98695.66;;;24.68;82.82
21276;BME280;36472;52.170;20.884;2023-08-06T06:20:09;98696.47;;;24.80;81.37
21276;BME280;36472;52.170;20.884;2023-08-06T06:22:38;98688.75;;;24.83;80.76
21276;BME280;36472;52.170;20.884;2023-08-06T06:25:08;98688.53;;;24.97;80.91
21276;BME280;36472;52.170;20.884;2023-08-06T06:27:37;98681.41;;;24.91;81.66
21276;BME280;36472;52.170;20.884;2023-08-06T06:30:10;98680.97;;;24.82;80.38
21276;BME280;36472;52.170;20.884;2023-08-06T06:32:40;98682.81;;;24.70;80.86
21276;BME280;36472;52.170;20.884;2023-08-06T06:35:09;98678.41;;;24.63;80.78
21276;BME280;36472;52.170;20.884;2023-08-06T06:37:38;98679.22;;;24.76;80.47
21276;BME280;36472;52.170;20.884;2023-08-06T06:40:08;98668.81;;;24.79;80.86
21276;BME280;36472;52.170;20.884;2023-08-06T06:42:37;98670.56;;;24.97;79.88
21276;BME280;36472;52.170;20.884;2023-08-06T06:45:10;98664.06;;;25.22;79.64
21276;BME280;36472;52.170;20.884;2023-08-06T06:47:39;98667.09;;;25.37;77.39
21276;BME280;36472;52.170;20.884;2023-08-06T06:50:09;98664.59;;;25.48;76.31
21276;BME280;36472;52.170;20.884;2023-08-06T06:52:38;98657.84;;;25.62;76.67
21276;BME280;36472;52.170;20.884;2023-08-06T06:55:08;98663.69;;;25.71;76.30
21276;BME280;36472;52.170;20.884;2023-08-06T06:57:37;98649.09;;;25.84;75.13
21276;BME280;36472;52.170;20.884;2023-08-06T07:00:09;98647.78;;;25.98;74.93
21276;BME280;36472;52.170;20.884;2023-08-06T07:02:39;98659.84;;;26.12;74.63
21276;BME280;36472;52.170;20.884;2023-08-06T07:05:08;98665.16;;;26.07;73.43
21276;BME280;36472;52.170;20.884;2023-08-06T07:07:37;98657.97;;;26.13;73.24
21276;BME280;36472;52.170;20.884;2023-08-06T07:10:07;98672.06;;;26.20;72.20
21276;BME280;36472;52.170;20.884;2023-08-06T07:12:36;98664.91;;;26.26;72.15
21276;BME280;36472;52.170;20.884;2023-08-06T07:15:07;98668.97;;;26.28;72.04
21276;BME280;36472;52.170;20.884;2023-08-06T07:17:37;98666.38;;;26.17;72.51
21276;BME280;36472;52.170;20.884;2023-08-06T07:20:07;98657.25;;;26.18;72.74
21276;BME280;36472;52.170;20.884;2023-08-06T07:22:36;98662.22;;;26.26;72.36
21276;BME280;36472;52.170;20.884;2023-08-06T07:25:06;98657.56;;;26.38;73.40
21276;BME280;36472;52.170;20.884;2023-08-06T07:27:35;98656.34;;;26.29;71.84
21276;BME280;36472;52.170;20.884;2023-08-06T07:30:06;98659.44;;;26.21;71.80
21276;BME280;36472;52.170;20.884;2023-08-06T07:32:36;98647.28;;;26.35;72.25
21276;BME280;36472;52.170;20.884;2023-08-06T07:35:06;98642.38;;;26.49;71.16
21276;BME280;36472;52.170;20.884;2023-08-06T07:37:39;98639.75;;;26.71;71.02
21276;BME280;36472;52.170;20.884;2023-08-06T07:40:10;98645.28;;;26.81;70.26
21276;BME280;36472;52.170;20.884;2023-08-06T07:42:39;98655.00;;;26.82;68.42
21276;BME280;36472;52.170;20.884;2023-08-06T07:45:09;98646.34;;;26.80;69.98
21276;BME280;36472;52.170;20.884;2023-08-06T07:47:39;98653.91;;;26.83;69.33
21276;BME280;36472;52.170;20.884;2023-08-06T07:50:09;98651.28;;;26.66;69.49
21276;BME280;36472;52.170;20.884;2023-08-06T07:52:38;98653.78;;;26.73;69.31
21276;BME280;36472;52.170;20.884;2023-08-06T07:55:08;98644.47;;;26.81;69.34
21276;BME280;36472;52.170;20.884;2023-08-06T07:57:37;98648.41;;;26.95;69.33
21276;BME280;36472;52.170;20.884;2023-08-06T08:00:07;98652.13;;;27.11;68.20
21276;BME280;36472;52.170;20.884;2023-08-06T08:02:40;98646.63;;;27.01;68.13
21276;BME280;36472;52.170;20.884;2023-08-06T08:05:10;98645.59;;;27.07;69.06
21276;BME280;36472;52.170;20.884;2023-08-06T08:07:39;98641.53;;;27.27;67.93
21276;BME280;36472;52.170;20.884;2023-08-06T08:10:08;98636.41;;;27.47;66.52
21276;BME280;36472;52.170;20.884;2023-08-06T08:12:37;98628.16;;;27.59;65.96
21276;BME280;36472;52.170;20.884;2023-08-06T08:15:07;98637.16;;;27.70;67.41
21276;BME280;36472;52.170;20.884;2023-08-06T08:17:36;98627.72;;;27.99;65.78
21276;BME280;36472;52.170;20.884;2023-08-06T08:20:08;98628.16;;;28.19;64.94
21276;BME280;36472;52.170;20.884;2023-08-06T08:22:37;98620.56;;;28.15;64.65
21276;BME280;36472;52.170;20.884;2023-08-06T08:25:06;98632.19;;;28.16;64.34
21276;BME280;36472;52.170;20.884;2023-08-06T08:27:35;98622.88;;;28.34;63.89
21276;BME280;36472;52.170;20.884;2023-08-06T08:30:06;98623.25;;;28.53;62.56
21276;BME280;36472;52.170;20.884;2023-08-06T08:32:35;98609.00;;;28.63;62.25
21276;BME280;36472;52.170;20.884;2023-08-06T08:35:05;98614.19;;;28.75;63.42
21276;BME280;36472;52.170;20.884;2023-08-06T08:37:35;98608.88;;;28.90;62.14
21276;BME280;36472;52.170;20.884;2023-08-06T08:40:07;98620.00;;;28.99;62.11
21276;BME280;36472;52.170;20.884;2023-08-06T08:42:36;98612.19;;;29.07;61.22
21276;BME280;36472;52.170;20.884;2023-08-06T08:45:12;98614.88;;;29.02;62.97
21276;BME280;36472;52.170;20.884;2023-08-06T08:47:43;98603.81;;;29.04;61.61
21276;BME280;36472;52.170;20.884;2023-08-06T08:50:12;98614.63;;;29.04;62.28
21276;BME280;36472;52.170;20.884;2023-08-06T08:52:43;98601.38;;;29.02;61.46
21276;BME280;36472;52.170;20.884;2023-08-06T08:55:15;98602.66;;;28.89;61.39
21276;BME280;36472;52.170;20.884;2023-08-06T08:57:45;98589.69;;;28.97;61.89
21276;BME280;36472;52.170;20.884;2023-08-06T09:00:14;98594.06;;;29.03;61.50
21276;BME280;36472;52.170;20.884;2023-08-06T09:02:44;98585.97;;;29.13;62.31
21276;BME280;36472;52.170;20.884;2023-08-06T09:05:16;98589.00;;;29.22;62.02
21276;BME280;36472;52.170;20.884;2023-08-06T09:07:49;98577.41;;;29.42;60.97
21276;BME280;36472;52.170;20.884;2023-08-06T09:10:20;98589.34;;;29.72;61.07
21276;BME280;36472;52.170;20.884;2023-08-06T09:12:52;98570.69;;;29.86;59.59
21276;BME280;36472;52.170;20.884;2023-08-06T09:15:24;98564.75;;;29.89;58.96
21276;BME280;36472;52.170;20.884;2023-08-06T09:17:54;98566.38;;;30.00;58.31
21276;BME280;36472;52.170;20.884;2023-08-06T09:20:23;98570.13;;;30.19;59.01
21276;BME280;36472;52.170;20.884;2023-08-06T09:22:54;98556.88;;;30.13;57.77
21276;BME280;36472;52.170;20.884;2023-08-06T09:25:25;98561.75;;;30.06;56.51
21276;BME280;36472;52.170;20.884;2023-08-06T09:27:55;98554.44;;;30.06;57.15
21276;BME280;36472;52.170;20.884;2023-08-06T09:30:32;98548.19;;;30.21;57.28
21276;BME280;36472;52.170;20.884;2023-08-06T09:33:02;98552.81;;;30.15;56.60
21276;BME280;36472;52.170;20.884;2023-08-06T09:35:31;98559.53;;;30.28;56.80
21276;BME280;36472;52.170;20.884;2023-08-06T09:38:07;98553.84;;;30.30;56.12
21276;BME280;36472;52.170;20.884;2023-08-06T09:40:40;98558.22;;;30.20;56.09
21276;BME280;36472;52.170;20.884;2023-08-06T09:43:11;98557.16;;;30.06;56.39
21276;BME280;36472;52.170;20.884;2023-08-06T09:45:40;98554.16;;;30.02;56.28
21276;BME280;36472;52.170;20.884;2023-08-06T09:48:10;98549.59;;;30.03;56.58
21276;BME280;36472;52.170;20.884;2023-08-06T09:50:40;98550.38;;;30.14;57.75
21276;BME280;36472;52.170;20.884;2023-08-06T09:53:11;98542.78;;;30.11;57.17
21276;BME280;36472;52.170;20.884;2023-08-06T09:55:41;98533.59;;;30.17;55.89
21276;BME280;36472;52.170;20.884;2023-08-06T09:58:10;98533.53;;;30.32;56.50
21276;BME280;36472;52.170;20.884;2023-08-06T10:00:40;98522.16;;;30.46;55.05
21276;BME280;36472;52.170;20.884;2023-08-06T10:03:10;98514.78;;;30.56;53.94
21276;BME280;36472;52.170;20.884;2023-08-06T10:05:44;98522.19;;;31.01;52.87
21276;BME280;36472;52.170;20.884;2023-08-06T10:08:17;98521.97;;;31.37;50.38
21276;BME280;36472;52.170;20.884;2023-08-06T10:10:46;98526.25;;;31.43;52.04
21276;BME280;36472;52.170;20.884;2023-08-06T10:13:17;98525.91;;;31.49;50.28
21276;BME280;36472;52.170;20.884;2023-08-06T10:15:47;98515.34;;;31.53;49.80
21276;BME280;36472;52.170;20.884;2023-08-06T10:18:17;98519.03;;;31.67;49.65
21276;BME280;36472;52.170;20.884;2023-08-06T10:20:50;98510.13;;;31.91;49.51
21276;BME280;36472;52.170;20.884;2023-08-06T10:23:33;98497.44;;;32.11;48.60
21276;BME280;36472;52.170;20.884;2023-08-06T10:26:02;98501.13;;;32.25;47.85
21276;BME280;36472;52.170;20.884;2023-08-06T10:28:38;98494.44;;;32.12;47.67
21276;BME280;36472;52.170;20.884;2023-08-06T10:31:08;98493.59;;;32.17;47.10
21276;BME280;36472;52.170;20.884;2023-08-06T10:33:44;98494.00;;;32.29;47.92
21276;BME280;36472;52.170;20.884;2023-08-06T10:36:15;98484.53;;;31.97;47.57
21276;BME280;36472;52.170;20.884;2023-08-06T10:38:47;98483.63;;;31.78;48.37
21276;BME280;36472;52.170;20.884;2023-08-06T10:41:23;98478.75;;;31.45;48.48
21276;BME280;36472;52.170;20.884;2023-08-06T10:44:05;98471.25;;;31.32;49.37
21276;BME280;36472;52.170;20.884;2023-08-06T10:46:36;98471.63;;;31.55;49.59
21276;BME280;36472;52.170;20.884;2023-08-06T10:49:05;98485.09;;;31.30;49.25
21276;BME280;36472;52.170;20.884;2023-08-06T10:51:36;98474.66;;;31.08;51.15
21276;BME280;36472;52.170;20.884;2023-08-06T10:54:06;98478.16;;;30.64;52.02
21276;BME280;36472;52.170;20.884;2023-08-06T10:56:40;98470.28;;;30.63;52.41
21276;BME280;36472;52.170;20.884;2023-08-06T10:59:09;98477.38;;;30.58;52.03
21276;BME280;36472;52.170;20.884;2023-08-06T11:01:39;98463.84;;;30.53;51.74
21276;BME280;36472;52.170;20.884;2023-08-06T11:04:08;98460.56;;;30.62;52.44
21276;BME280;36472;52.170;20.884;2023-08-06T11:06:43;98450.75;;;30.71;52.55
21276;BME280;36472;52.170;20.884;2023-08-06T11:09:13;98447.09;;;30.96;50.68
21276;BME280;36472;52.170;20.884;2023-08-06T11:11:43;98448.66;;;31.42;49.94
21276;BME280;36472;52.170;20.884;2023-08-06T11:14:15;98438.91;;;31.94;49.99
21276;BME280;36472;52.170;20.884;2023-08-06T11:16:45;98432.13;;;32.21;49.82
21276;BME280;36472;52.170;20.884;2023-08-06T11:19:14;98433.56;;;32.37;49.18
21276;BME280;36472;52.170;20.884;2023-08-06T11:21:44;98429.53;;;32.54;47.73
21276;BME280;36472;52.170;20.884;2023-08-06T11:24:16;98441.50;;;32.10;47.02
21276;BME280;36472;52.170;20.884;2023-08-06T11:26:45;98427.28;;;32.18;46.79
21276;BME280;36472;52.170;20.884;2023-08-06T11:29:15;98416.69;;;32.59;47.33
21276;BME280;36472;52.170;20.884;2023-08-06T11:31:45;98420.53;;;32.77;45.81
21276;BME280;36472;52.170;20.884;2023-08-06T11:34:15;98418.66;;;33.30;45.95
21276;BME280;36472;52.170;20.884;2023-08-06T11:36:44;98425.97;;;33.48;44.20
21276;BME280;36472;52.170;20.884;2023-08-06T11:39:13;98411.78;;;33.65;42.58
21276;BME280;36472;52.170;20.884;2023-08-06T11:41:44;98408.69;;;33.72;42.15
21276;BME280;36472;52.170;20.884;2023-08-06T11:44:14;98400.44;;;33.44;42.33
21276;BME280;36472;52.170;20.884;2023-08-06T11:46:51;98401.41;;;32.83;43.19
21276;BME280;36472;52.170;20.884;2023-08-06T11:49:21;98397.81;;;32.30;44.34
21276;BME280;36472;52.170;20.884;2023-08-06T11:52:14;98389.38;;;32.51;44.21
21276;BME280;36472;52.170;20.884;2023-08-06T11:54:46;98389.22;;;32.99;42.78
21276;BME280;36472;52.170;20.884;2023-08-06T11:57:17;98378.25;;;33.04;42.62
21276;BME280;36472;52.170;20.884;2023-08-06T11:59:46;98375.88;;;33.16;42.91
21276;BME280;36472;52.170;20.884;2023-08-06T12:02:15;98371.81;;;33.47;42.71
21276;BME280;36472;52.170;20.884;2023-08-06T12:05:12;98372.97;;;34.29;41.18
21276;BME280;36472;52.170;20.884;2023-08-06T12:07:43;98368.84;;;34.54;40.60
21276;BME280;36472;52.170;20.884;2023-08-06T12:10:13;98362.72;;;34.35;40.89
21276;BME280;36472;52.170;20.884;2023-08-06T12:12:44;98353.78;;;33.65;42.56
21276;BME280;36472;52.170;20.884;2023-08-06T12:15:13;98365.22;;;32.68;42.82
21276;BME280;36472;52.170;20.884;2023-08-06T12:17:43;98357.56;;;32.32;43.79
21276;BME280;36472;52.170;20.884;2023-08-06T12:20:13;98352.84;;;31.95;44.33
21276;BME280;36472;52.170;20.884;2023-08-06T12:22:42;98355.97;;;31.59;45.22
21276;BME280;36472;52.170;20.884;2023-08-06T12:25:13;98358.94;;;31.33;46.17
21276;BME280;36472;52.170;20.884;2023-08-06T12:27:44;98362.09;;;31.11;46.32
21276;BME280;36472;52.170;20.884;2023-08-06T12:30:14;98358.41;;;30.97;45.19
21276;BME280;36472;52.170;20.884;2023-08-06T12:32:43;98365.63;;;30.72;45.45
21276;BME280;36472;52.170;20.884;2023-08-06T12:35:11;98371.16;;;30.56;46.33
21276;BME280;36472;52.170;20.884;2023-08-06T12:37:41;98368.53;;;30.41;45.09
21276;BME280;36472;52.170;20.884;2023-08-06T12:40:11;98379.72;;;30.19;44.93
21276;BME280;36472;52.170;20.884;2023-08-06T12:42:45;98390.88;;;30.12;45.35
21276;BME280;36472;52.170;20.884;2023-08-06T12:45:14;98369.50;;;30.00;45.80
21276;BME280;36472;52.170;20.884;2023-08-06T12:47:43;98365.75;;;29.96;46.13
21276;BME280;36472;52.170;20.884;2023-08-06T12:50:13;98372.00;;;29.92;46.50
21276;BME280;36472;52.170;20.884;2023-08-06T12:52:42;98368.72;;;30.00;46.27
21276;BME280;36472;52.170;20.884;2023-08-06T12:55:11;98373.28;;;30.05;46.70
21276;BME280;36472;52.170;20.884;2023-08-06T12:57:40;98365.16;;;30.05;47.18
21276;BME280;36472;52.170;20.884;2023-08-06T13:00:26;98371.94;;;30.02;47.39
21276;BME280;36472;52.170;20.884;2023-08-06T13:02:56;98368.19;;;29.98;47.51